createdAt,value
2023-04-26T00:01:36.250Z,44.35
2023-04-26T00:04:10.831Z,44.38
2023-04-26T00:06:44.626Z,44.35
2023-04-26T00:09:19.106Z,44.42
2023-04-26T00:11:54.345Z,44.39
2023-04-26T00:14:28.199Z,44.56
2023-04-26T00:17:04.112Z,44.30
2023-04-26T00:19:40.143Z,44.20
2023-04-26T00:22:13.676Z,44.42
2023-04-26T00:24:47.383Z,44.44
2023-04-26T00:27:22.617Z,44.53
2023-04-26T00:29:56.919Z,44.66
2023-04-26T00:32:30.538Z,44.86
2023-04-26T00:35:09.655Z,45.18
2023-04-26T00:37:45.448Z,45.38
2023-04-26T00:40:21.043Z,45.48
2023-04-26T00:43:01.054Z,45.76
2023-04-26T00:45:34.508Z,45.83
2023-04-26T00:48:08.160Z,45.73
2023-04-26T00:50:41.781Z,45.42
2023-04-26T00:53:16.266Z,44.71
2023-04-26T00:55:51.956Z,44.39
2023-04-26T00:58:25.531Z,44.28
2023-04-26T01:00:59.227Z,43.99
2023-04-26T01:03:33.107Z,43.94
2023-04-26T01:06:09.456Z,43.96
2023-04-26T01:08:43.295Z,43.98
2023-04-26T01:11:17.163Z,43.93
2023-04-26T01:13:51.443Z,44.20
2023-04-26T01:16:26.028Z,44.16
2023-04-26T01:18:59.981Z,44.16
2023-04-26T01:21:33.861Z,44.26
2023-04-26T01:24:08.957Z,44.64
2023-04-26T01:26:46.084Z,44.87
2023-04-26T01:29:19.189Z,45.14
2023-04-26T01:31:52.918Z,45.66
2023-04-26T01:34:26.800Z,45.89
2023-04-26T01:37:02.487Z,46.43
2023-04-26T01:39:38.149Z,47.47
2023-04-26T01:42:11.644Z,47.88
2023-04-26T01:44:45.218Z,48.41
2023-04-26T01:47:18.915Z,48.60
2023-04-26T01:49:53.228Z,48.80
2023-04-26T01:52:26.868Z,48.79
2023-04-26T01:55:00.755Z,49.16
2023-04-26T01:57:34.306Z,49.30
2023-04-26T02:00:10.160Z,49.71
2023-04-26T02:02:43.780Z,50.00
2023-04-26T02:05:17.647Z,50.08
2023-04-26T02:07:52.168Z,50.22
2023-04-26T02:10:25.957Z,50.47
2023-04-26T02:12:59.510Z,50.71
2023-04-26T02:15:33.347Z,50.28
2023-04-26T02:18:07.362Z,50.56
2023-04-26T02:20:43.542Z,50.58
2023-04-26T02:23:17.252Z,50.46
2023-04-26T02:25:51.459Z,50.47
2023-04-26T02:28:26.384Z,50.50
2023-04-26T02:31:01.552Z,50.44
2023-04-26T02:33:34.868Z,50.16
2023-04-26T02:36:09.788Z,50.19
2023-04-26T02:38:43.734Z,49.86
2023-04-26T02:41:17.059Z,49.86
2023-04-26T02:43:50.574Z,49.89
2023-04-26T02:46:24.670Z,49.87
2023-04-26T02:48:58.326Z,49.46
2023-04-26T02:51:34.016Z,49.27
2023-04-26T02:54:08.795Z,48.86
2023-04-26T02:56:42.371Z,47.78
2023-04-26T02:59:15.837Z,46.96
2023-04-26T03:01:49.287Z,46.42
2023-04-26T03:04:23.075Z,45.77
2023-04-26T03:06:57.034Z,44.65
2023-04-26T03:09:30.718Z,43.33
2023-04-26T03:12:04.553Z,42.47
2023-04-26T03:14:39.034Z,42.15
2023-04-26T03:17:12.473Z,42.03
2023-04-26T03:19:46.066Z,42.10
2023-04-26T03:22:23.128Z,42.26
2023-04-26T03:24:57.596Z,42.29
2023-04-26T03:27:34.015Z,42.62
2023-04-26T03:30:08.821Z,42.73
2023-04-26T03:32:42.400Z,43.04
2023-04-26T03:35:16.825Z,43.26
2023-04-26T03:37:52.432Z,43.51
2023-04-26T03:40:27.083Z,43.35
2023-04-26T03:43:03.702Z,43.42
2023-04-26T03:45:37.779Z,43.45
2023-04-26T03:48:11.347Z,43.40
2023-04-26T03:50:46.470Z,43.14
2023-04-26T03:53:20.719Z,43.21
2023-04-26T03:55:54.313Z,43.01
2023-04-26T03:58:29.614Z,42.87
2023-04-26T04:01:04.397Z,42.74
2023-04-26T04:03:40.670Z,42.58
2023-04-26T04:06:17.745Z,42.51
2023-04-26T04:08:51.673Z,42.66
2023-04-26T04:11:25.693Z,42.88
2023-04-26T04:13:59.461Z,42.88
2023-04-26T04:16:33.192Z,42.96
2023-04-26T04:19:06.764Z,42.84
2023-04-26T04:21:40.856Z,42.87
2023-04-26T04:24:14.325Z,42.74
2023-04-26T04:26:48.179Z,42.83
2023-04-26T04:29:21.913Z,42.89
2023-04-26T04:31:55.634Z,42.88
2023-04-26T04:34:29.814Z,42.58
2023-04-26T04:37:04.691Z,42.30
2023-04-26T04:39:38.718Z,41.74
2023-04-26T04:42:12.795Z,41.49
2023-04-26T04:44:47.264Z,40.96
2023-04-26T04:47:21.107Z,40.44
2023-04-26T04:49:54.901Z,39.59
2023-04-26T04:52:28.562Z,38.77
2023-04-26T04:55:05.678Z,37.72
2023-04-26T04:57:40.698Z,35.61
2023-04-26T05:00:18.898Z,31.80
2023-04-26T05:02:52.350Z,28.25
2023-04-26T05:05:26.231Z,25.08
2023-04-26T05:07:59.843Z,21.97
2023-04-26T05:10:33.482Z,20.41
2023-04-26T05:13:07.872Z,18.60
2023-04-26T05:15:42.224Z,17.06
2023-04-26T05:18:15.835Z,15.73
2023-04-26T05:20:49.465Z,14.55
2023-04-26T05:23:23.609Z,13.41
2023-04-26T05:25:57.141Z,13.14
2023-04-26T05:28:30.749Z,12.65
2023-04-26T05:31:04.944Z,12.23
2023-04-26T05:33:38.989Z,11.32
2023-04-26T05:36:14.020Z,10.84
2023-04-26T05:38:48.036Z,10.15
2023-04-26T05:41:22.145Z,9.67
2023-04-26T05:43:54.200Z,9.55
2023-04-26T05:46:29.389Z,9.46
2023-04-26T05:49:06.191Z,9.00
2023-04-26T05:51:40.015Z,8.54
2023-04-26T05:54:13.619Z,8.50
2023-04-26T05:56:45.386Z,8.61
2023-04-26T05:59:20.038Z,8.57
2023-04-26T06:01:53.929Z,8.29
2023-04-26T06:04:27.946Z,8.04
2023-04-26T06:07:02.585Z,7.96
2023-04-26T06:09:36.787Z,7.66
2023-04-26T06:12:10.540Z,7.65
2023-04-26T06:14:44.339Z,7.64
2023-04-26T06:17:18.176Z,7.61
2023-04-26T06:19:51.795Z,7.92
2023-04-26T06:22:28.679Z,7.80
2023-04-26T06:25:02.542Z,7.68
2023-04-26T06:27:36.263Z,7.63
2023-04-26T06:30:12.919Z,7.92
2023-04-26T06:32:46.466Z,7.74
2023-04-26T06:35:20.456Z,7.81
2023-04-26T06:37:54.257Z,8.05
2023-04-26T06:40:28.034Z,7.98
2023-04-26T06:43:01.623Z,7.92
2023-04-26T06:45:35.422Z,7.88
2023-04-26T06:48:09.879Z,8.10
2023-04-26T06:50:44.959Z,8.02
2023-04-26T06:53:23.172Z,8.55
2023-04-26T06:55:58.513Z,8.68
2023-04-26T06:58:32.382Z,8.98
2023-04-26T07:01:06.830Z,8.95
2023-04-26T07:03:42.933Z,8.61
2023-04-26T07:06:17.550Z,8.97
2023-04-26T07:08:51.731Z,9.02
2023-04-26T07:11:26.390Z,8.46
2023-04-26T07:14:04.646Z,9.38
2023-04-26T07:16:38.527Z,10.24
2023-04-26T07:19:12.693Z,10.63
2023-04-26T07:21:46.273Z,11.27
2023-04-26T07:24:20.198Z,11.51
2023-04-26T07:26:54.599Z,12.50
2023-04-26T07:29:28.545Z,13.76
2023-04-26T07:32:02.365Z,15.07
2023-04-26T07:34:36.046Z,16.13
2023-04-26T07:37:09.801Z,17.46
2023-04-26T07:39:44.080Z,18.93
2023-04-26T07:42:18.982Z,19.98
2023-04-26T07:45:10.179Z,21.12
2023-04-26T07:47:44.381Z,22.13
2023-04-26T07:50:18.303Z,23.16
2023-04-26T07:52:51.799Z,23.92
2023-04-26T07:55:25.765Z,24.58
2023-04-26T07:57:59.605Z,25.21
2023-04-26T08:00:33.214Z,25.68
2023-04-26T08:03:10.018Z,25.98
2023-04-26T08:05:44.279Z,26.69
2023-04-26T08:08:18.961Z,27.08
2023-04-26T08:10:53.753Z,27.54
2023-04-26T08:13:29.598Z,28.24
2023-04-26T08:16:04.007Z,29.04
2023-04-26T08:18:39.741Z,29.51
2023-04-26T08:21:13.300Z,30.23
2023-04-26T08:23:47.491Z,30.54
2023-04-26T08:26:21.271Z,31.48
2023-04-26T08:29:00.420Z,31.89
2023-04-26T08:31:34.427Z,32.43
2023-04-26T08:34:09.545Z,32.40
2023-04-26T08:36:45.087Z,32.70
2023-04-26T08:39:19.335Z,32.71
2023-04-26T08:41:56.675Z,33.04
2023-04-26T08:44:30.151Z,33.27
2023-04-26T08:47:08.814Z,32.98
2023-04-26T08:49:48.088Z,32.79
2023-04-26T08:52:25.047Z,33.01
2023-04-26T08:55:00.629Z,33.38
2023-04-26T08:57:35.430Z,33.29
2023-04-26T09:00:12.882Z,33.39
2023-04-26T09:02:51.497Z,33.90
2023-04-26T09:05:27.151Z,34.15
2023-04-26T09:08:04.090Z,34.13
2023-04-26T09:10:38.524Z,34.43
2023-04-26T09:13:14.467Z,34.60
2023-04-26T09:15:52.110Z,34.49
2023-04-26T09:18:27.006Z,34.79
2023-04-26T09:21:11.165Z,34.75
2023-04-26T09:24:01.522Z,34.61
2023-04-26T09:26:35.208Z,34.41
2023-04-26T09:29:20.991Z,34.41
2023-04-26T09:31:56.090Z,34.46
2023-04-26T09:34:30.046Z,34.20
2023-04-26T09:37:03.682Z,34.82
2023-04-26T09:39:38.670Z,34.99
2023-04-26T09:42:13.212Z,35.06
2023-04-26T09:44:48.152Z,35.10
2023-04-26T09:47:23.264Z,35.35
2023-04-26T09:49:58.451Z,35.33
2023-04-26T09:52:34.445Z,35.34
2023-04-26T09:55:16.435Z,35.53
2023-04-26T09:58:02.052Z,35.41
2023-04-26T10:00:35.798Z,35.09
2023-04-26T10:03:12.205Z,34.76
2023-04-26T10:05:47.662Z,34.70
2023-04-26T10:08:28.416Z,34.67
2023-04-26T10:11:02.695Z,34.50
2023-04-26T10:13:37.519Z,34.70
2023-04-26T10:16:14.446Z,35.00
2023-04-26T10:18:49.760Z,35.11
2023-04-26T10:21:37.499Z,34.36
2023-04-26T10:24:12.490Z,34.07
2023-04-26T10:26:55.198Z,33.95
2023-04-26T10:29:52.124Z,33.71
2023-04-26T10:32:35.632Z,33.69
2023-04-26T10:35:18.296Z,33.59
2023-04-26T10:38:16.396Z,33.71
2023-04-26T10:40:55.113Z,33.59
2023-04-26T10:43:39.124Z,33.40
2023-04-26T10:46:43.699Z,33.10
2023-04-26T10:49:26.659Z,32.79
2023-04-26T10:52:17.290Z,33.35
2023-04-26T10:54:55.595Z,33.36
2023-04-26T10:57:57.893Z,33.56
2023-04-26T11:00:35.487Z,33.65
2023-04-26T11:03:10.879Z,33.46
2023-04-26T11:05:56.751Z,33.29
2023-04-26T11:08:32.329Z,33.62
2023-04-26T11:11:15.801Z,33.82
2023-04-26T11:13:50.087Z,34.15
2023-04-26T11:16:27.220Z,34.17
2023-04-26T11:19:00.885Z,34.26
2023-04-26T11:21:34.993Z,34.26
2023-04-26T11:24:10.051Z,34.28
2023-04-26T11:26:45.644Z,34.30
2023-04-26T11:29:23.891Z,34.50
2023-04-26T11:31:59.218Z,34.63
2023-04-26T11:34:39.920Z,34.53
2023-04-26T11:37:14.821Z,34.30
2023-04-26T11:39:49.115Z,35.12
2023-04-26T11:42:29.776Z,35.68
2023-04-26T11:45:07.391Z,36.02
2023-04-26T11:47:43.638Z,35.94
2023-04-26T11:50:15.543Z,35.15
2023-04-26T11:52:49.090Z,35.20
2023-04-26T11:55:24.962Z,35.33
2023-04-26T12:01:03.852Z,35.59
2023-04-26T12:03:39.236Z,35.55
2023-04-26T12:06:13.280Z,35.34
2023-04-26T12:08:53.990Z,35.20
2023-04-26T12:11:27.800Z,34.98
2023-04-26T12:14:03.417Z,34.53
2023-04-26T12:16:39.613Z,34.05
2023-04-26T12:19:24.853Z,34.13
2023-04-26T12:21:58.854Z,34.41
2023-04-26T12:24:34.990Z,35.03
2023-04-26T12:27:10.564Z,35.60
2023-04-26T12:29:45.782Z,35.89
2023-04-26T12:32:30.398Z,36.02
2023-04-26T12:35:08.351Z,36.03
2023-04-26T12:37:42.164Z,35.87
2023-04-26T12:40:17.118Z,35.86
2023-04-26T12:42:53.642Z,35.86
2023-04-26T12:45:29.304Z,35.80
2023-04-26T12:48:03.158Z,35.89
2023-04-26T12:50:38.283Z,35.94
2023-04-26T12:53:12.956Z,35.51
2023-04-26T12:55:46.452Z,35.17
2023-04-26T12:58:22.850Z,35.04
2023-04-26T13:00:56.661Z,34.92
2023-04-26T13:03:30.414Z,34.86
2023-04-26T13:06:07.525Z,34.79
2023-04-26T13:08:41.977Z,34.53
2023-04-26T13:11:16.751Z,34.61
2023-04-26T13:13:51.992Z,34.77
2023-04-26T13:16:25.979Z,34.86
2023-04-26T13:18:59.992Z,34.80
2023-04-26T13:21:35.620Z,34.87
2023-04-26T13:24:10.458Z,35.26
2023-04-26T13:26:44.183Z,35.15
2023-04-26T13:29:21.954Z,35.19
2023-04-26T13:31:57.453Z,35.95
2023-04-26T13:34:31.802Z,36.21
2023-04-26T13:37:05.857Z,36.81
2023-04-26T13:39:40.296Z,37.26
2023-04-26T13:42:15.546Z,37.48
2023-04-26T13:44:52.556Z,38.09
2023-04-26T13:47:29.216Z,38.32
2023-04-26T13:50:03.559Z,38.84
2023-04-26T13:52:37.547Z,39.27
2023-04-26T13:55:16.712Z,39.20
2023-04-26T13:57:50.948Z,39.31
2023-04-26T14:00:25.930Z,39.73
2023-04-26T14:02:59.685Z,39.53
2023-04-26T14:05:33.792Z,39.62
2023-04-26T14:08:08.722Z,39.93
2023-04-26T14:10:44.310Z,40.21
2023-04-26T14:13:20.637Z,40.16
2023-04-26T14:15:58.242Z,40.35
2023-04-26T14:18:32.089Z,40.45
2023-04-26T14:21:06.146Z,40.47
2023-04-26T14:23:40.080Z,40.53
2023-04-26T14:26:15.162Z,40.29
2023-04-26T14:28:49.317Z,39.95
2023-04-26T14:31:26.600Z,40.09
2023-04-26T14:34:00.860Z,39.93
2023-04-26T14:36:40.346Z,40.05
2023-04-26T14:39:18.675Z,40.00
2023-04-26T14:41:52.305Z,40.28
2023-04-26T14:44:27.577Z,40.33
2023-04-26T14:47:02.183Z,40.89
2023-04-26T14:49:36.292Z,40.98
2023-04-26T14:52:11.922Z,41.18
2023-04-26T14:54:54.520Z,41.64
2023-04-26T14:57:30.249Z,41.68
2023-04-26T15:00:10.624Z,42.00
2023-04-26T15:02:50.963Z,42.05
2023-04-26T15:05:27.552Z,42.29
2023-04-26T15:08:04.582Z,42.38
2023-04-26T15:10:38.443Z,42.69
2023-04-26T15:13:15.345Z,42.68
2023-04-26T15:15:51.926Z,42.67
2023-04-26T15:18:33.771Z,42.88
2023-04-26T15:21:11.952Z,42.84
2023-04-26T15:23:45.575Z,42.76
2023-04-26T15:26:19.813Z,42.83
2023-04-26T15:28:54.937Z,43.06
2023-04-26T15:31:39.377Z,43.23
2023-04-26T15:34:15.336Z,43.19
2023-04-26T15:36:49.405Z,43.41
2023-04-26T15:39:29.033Z,43.35
2023-04-26T15:42:02.976Z,43.31
2023-04-26T15:44:44.888Z,43.30
2023-04-26T15:47:22.684Z,43.53
2023-04-26T15:49:58.891Z,43.69
2023-04-26T15:52:32.953Z,44.12
2023-04-26T15:55:08.050Z,44.41
2023-04-26T15:57:45.550Z,44.81
2023-04-26T16:00:23.498Z,44.98
2023-04-26T16:03:00.975Z,45.16
2023-04-26T16:05:38.008Z,45.56
2023-04-26T16:08:24.384Z,45.68
2023-04-26T16:11:10.010Z,46.02
2023-04-26T16:13:44.944Z,46.26
2023-04-26T16:16:20.294Z,46.53
2023-04-26T16:19:00.677Z,46.77
2023-04-26T16:21:36.523Z,47.06
2023-04-26T16:24:12.102Z,47.20
2023-04-26T16:26:48.780Z,47.62
2023-04-26T16:29:25.913Z,47.99
2023-04-26T16:31:59.834Z,48.13
2023-04-26T16:34:35.202Z,48.63
2023-04-26T16:37:09.652Z,48.67
2023-04-26T16:39:43.593Z,48.66
2023-04-26T16:42:17.127Z,48.96
2023-04-26T16:44:56.118Z,48.96
2023-04-26T16:47:30.982Z,48.87
2023-04-26T16:50:09.052Z,48.59
2023-04-26T16:52:45.256Z,48.25
2023-04-26T16:55:20.585Z,47.79
2023-04-26T16:57:54.180Z,47.35
2023-04-26T17:00:32.602Z,47.06
2023-04-26T17:03:27.361Z,46.83
2023-04-26T17:06:02.052Z,46.63
2023-04-26T17:08:42.766Z,46.44
2023-04-26T17:11:24.567Z,46.24
2023-04-26T17:14:02.055Z,45.93
2023-04-26T17:16:37.027Z,45.58
2023-04-26T17:19:15.813Z,45.17
2023-04-26T17:21:50.170Z,44.74
2023-04-26T17:24:26.185Z,44.39
2023-04-26T17:26:59.958Z,44.28
2023-04-26T17:29:35.381Z,44.33
2023-04-26T17:32:20.515Z,44.54
2023-04-26T17:34:56.269Z,44.71
2023-04-26T17:37:30.972Z,44.83
2023-04-26T17:40:08.430Z,44.81
2023-04-26T17:42:42.500Z,44.98
2023-04-26T17:45:28.938Z,44.98
2023-04-26T17:48:03.035Z,45.03
2023-04-26T17:50:38.016Z,45.17
2023-04-26T17:53:13.222Z,45.44
2023-04-26T17:56:00.761Z,46.53
2023-04-26T17:58:39.138Z,47.98
2023-04-26T18:01:13.129Z,49.00
2023-04-26T18:03:49.549Z,49.04
2023-04-26T18:06:23.411Z,48.59
2023-04-26T18:08:56.927Z,48.70
2023-04-26T18:11:32.343Z,48.96
2023-04-26T18:14:06.774Z,49.64
2023-04-26T18:16:47.565Z,49.82
2023-04-26T18:19:24.593Z,49.89
2023-04-26T18:21:58.585Z,49.97
2023-04-26T18:24:36.161Z,50.62
2023-04-26T18:27:14.883Z,51.09
2023-04-26T18:29:54.206Z,52.17
2023-04-26T18:32:39.179Z,52.87
2023-04-26T18:35:23.478Z,53.00
2023-04-26T18:38:03.954Z,53.56
2023-04-26T18:40:45.875Z,53.98
2023-04-26T18:43:22.486Z,54.23
2023-04-26T18:46:01.226Z,54.28
2023-04-26T18:48:48.613Z,54.47
2023-04-26T18:51:41.651Z,54.55
2023-04-26T18:54:26.795Z,54.25
2023-04-26T18:57:03.356Z,54.24
2023-04-26T18:59:37.997Z,54.30
2023-04-26T19:02:13.734Z,54.10
2023-04-26T19:05:03.025Z,54.26
2023-04-26T19:07:46.448Z,55.48
2023-04-26T19:10:31.020Z,56.03
2023-04-26T19:13:10.707Z,56.18
2023-04-26T19:15:54.411Z,56.28
2023-04-26T19:18:28.312Z,56.45
2023-04-26T19:21:15.324Z,56.56
2023-04-26T19:23:55.950Z,56.90
2023-04-26T19:26:37.062Z,57.26
2023-04-26T19:29:13.678Z,57.40
2023-04-26T19:32:12.897Z,57.37
2023-04-26T19:34:48.330Z,57.42
2023-04-26T19:37:25.087Z,57.28
2023-04-26T19:40:02.956Z,57.40
2023-04-26T19:42:39.826Z,57.52
2023-04-26T19:45:26.604Z,57.57
2023-04-26T19:48:06.435Z,57.78
2023-04-26T19:50:46.381Z,57.95
2023-04-26T19:53:27.914Z,57.88
2023-04-26T19:56:04.188Z,58.09
2023-04-26T19:58:42.336Z,58.24
2023-04-26T20:01:20.555Z,58.33
2023-04-26T20:03:57.898Z,58.59
2023-04-26T20:06:42.887Z,58.87
2023-04-26T20:09:20.789Z,59.10
2023-04-26T20:11:58.846Z,59.16
2023-04-26T20:14:34.281Z,59.42
2023-04-26T20:17:17.276Z,59.41
2023-04-26T20:19:51.366Z,59.37
2023-04-26T20:22:30.824Z,59.59
2023-04-26T20:25:21.494Z,59.58
2023-04-26T20:27:57.164Z,59.80
2023-04-26T20:30:43.221Z,59.89
2023-04-26T20:33:28.601Z,60.07
2023-04-26T20:36:08.352Z,60.08
2023-04-26T20:38:59.420Z,60.03
2023-04-26T20:41:36.366Z,60.24
2023-04-26T20:44:13.532Z,60.54
2023-04-26T20:46:48.870Z,60.94
2023-04-26T20:49:23.145Z,61.56
2023-04-26T20:51:58.238Z,61.87
2023-04-26T20:54:36.862Z,62.07
2023-04-26T20:57:10.511Z,62.11
2023-04-26T20:59:47.578Z,62.04
2023-04-26T21:02:24.165Z,61.97
2023-04-26T21:05:13.656Z,61.93
2023-04-26T21:07:53.447Z,61.84
2023-04-26T21:10:30.516Z,61.89
2023-04-26T21:13:08.544Z,62.04
2023-04-26T21:15:44.086Z,62.01
2023-04-26T21:18:20.689Z,61.98
2023-04-26T21:20:54.912Z,61.84
2023-04-26T21:23:36.364Z,61.43
2023-04-26T21:26:14.414Z,61.21
2023-04-26T21:28:52.802Z,61.38
2023-04-26T21:31:32.661Z,61.58
2023-04-26T21:34:14.478Z,61.99
2023-04-26T21:36:57.797Z,62.04
2023-04-26T21:39:34.872Z,62.06
2023-04-26T21:42:09.017Z,61.85
2023-04-26T21:44:42.959Z,61.68
2023-04-26T21:47:17.056Z,61.36
2023-04-26T21:49:56.375Z,61.32
2023-04-26T21:52:30.290Z,61.46
2023-04-26T21:55:04.487Z,61.41
2023-04-26T21:57:38.041Z,61.21
2023-04-26T22:00:18.603Z,61.09
2023-04-26T22:02:53.037Z,61.09
2023-04-26T22:05:27.736Z,60.95
2023-04-26T22:08:04.138Z,61.01
2023-04-26T22:10:38.361Z,60.99
2023-04-26T22:13:12.165Z,60.91
2023-04-26T22:15:47.548Z,60.88
2023-04-26T22:18:26.370Z,60.94
2023-04-26T22:21:01.484Z,61.10
2023-04-26T22:23:36.386Z,61.17
2023-04-26T22:26:10.642Z,61.03
2023-04-26T22:28:45.131Z,60.97
2023-04-26T22:31:18.784Z,61.02
2023-04-26T22:33:53.433Z,61.09
2023-04-26T22:36:29.149Z,61.07
2023-04-26T22:39:03.473Z,61.21
2023-04-26T22:41:39.840Z,61.35
2023-04-26T22:44:15.197Z,61.27
2023-04-26T22:46:48.963Z,61.37
2023-04-26T22:49:23.677Z,61.43
2023-04-26T22:52:07.809Z,61.46
2023-04-26T22:54:43.744Z,61.40
2023-04-26T22:57:17.600Z,61.34
2023-04-26T22:59:51.312Z,61.25
2023-04-26T23:02:24.986Z,61.19
2023-04-26T23:04:58.946Z,61.10
2023-04-26T23:07:33.793Z,61.06
2023-04-26T23:10:09.267Z,61.01
2023-04-26T23:12:45.395Z,61.13
2023-04-26T23:15:19.716Z,61.24
2023-04-26T23:17:54.285Z,61.11
2023-04-26T23:20:28.649Z,61.00
2023-04-26T23:23:02.126Z,61.38
2023-04-26T23:25:36.200Z,61.89
2023-04-26T23:28:10.460Z,62.11
2023-04-26T23:30:45.006Z,62.17
2023-04-26T23:33:18.570Z,62.02
2023-04-26T23:35:56.114Z,62.00
2023-04-26T23:38:31.247Z,62.25
2023-04-26T23:41:04.897Z,62.28
2023-04-26T23:43:41.338Z,62.30
2023-04-26T23:46:14.915Z,62.32
2023-04-26T23:48:49.152Z,62.37
2023-04-26T23:51:24.122Z,62.17
2023-04-26T23:53:57.667Z,62.10
2023-04-26T23:56:31.922Z,61.92
2023-04-26T23:59:05.548Z,61.54
